sensor_id;sensor_type;location;lat;lon;timestamp;pressure;altitude;pressure_sealevel;temperature;humidity
33265;BME280;31404;53.974;-1.086;2022-12-07T00:00:36;102458.62;;;0.61;100.00
33265;BME280;31404;53.974;-1.086;2022-12-07T00:05:35;102446.27;;;0.27;100.00
33265;BME280;31404;53.974;-1.086;2022-12-07T00:10:35;102443.37;;;0.54;100.00
33265;BME280;31404;53.974;-1.086;2022-12-07T00:15:34;102437.76;;;-0.33;100.00
33265;BME280;31404;53.974;-1.086;2022-12-07T00:20:34;102440.08;;;-0.04;100.00
33265;BME280;31404;53.974;-1.086;2022-12-07T00:25:35;102440.91;;;0.33;100.00
33265;BME280;31404;53.974;-1.086;2022-12-07T00:30:35;102435.69;;;0.24;100.00
33265;BME280;31404;53.974;-1.086;2022-12-07T00:35:35;102434.64;;;-0.13;100.00
33265;BME280;31404;53.974;-1.086;2022-12-07T00:40:35;102432.53;;;0.75;100.00
33265;BME280;31404;53.974;-1.086;2022-12-07T00:45:35;102431.34;;;1.15;100.00
33265;BME280;31404;53.974;-1.086;2022-12-07T00:50:35;102441.57;;;0.34;100.00
33265;BME280;31404;53.974;-1.086;2022-12-07T00:55:35;102436.23;;;0.80;100.00
33265;BME280;31404;53.974;-1.086;2022-12-07T01:00:37;102427.74;;;-0.64;100.00
33265;BME280;31404;53.974;-1.086;2022-12-07T01:05:35;102426.37;;;-0.73;100.00
33265;BME280;31404;53.974;-1.086;2022-12-07T01:10:34;102427.29;;;0.25;100.00
33265;BME280;31404;53.974;-1.086;2022-12-07T01:15:34;102431.44;;;0.44;100.00
33265;BME280;31404;53.974;-1.086;2022-12-07T01:20:30;102426.92;;;0.70;100.00
33265;BME280;31404;53.974;-1.086;2022-12-07T01:25:34;102419.65;;;-0.47;100.00
33265;BME280;31404;53.974;-1.086;2022-12-07T01:30:34;102428.83;;;-0.85;100.00
33265;BME280;31404;53.974;-1.086;2022-12-07T01:35:34;102422.32;;;0.18;100.00
33265;BME280;31404;53.974;-1.086;2022-12-07T01:40:34;102418.83;;;0.00;100.00
33265;BME280;31404;53.974;-1.086;2022-12-07T01:45:39;102415.21;;;-0.80;100.00
33265;BME280;31404;53.974;-1.086;2022-12-07T01:50:35;102405.00;;;-1.15;100.00
33265;BME280;31404;53.974;-1.086;2022-12-07T01:55:37;102409.39;;;-1.64;100.00
33265;BME280;31404;53.974;-1.086;2022-12-07T02:00:35;102403.90;;;-1.15;100.00
33265;BME280;31404;53.974;-1.086;2022-12-07T02:05:37;102402.39;;;-0.06;100.00
33265;BME280;31404;53.974;-1.086;2022-12-07T02:10:35;102403.23;;;-0.09;100.00
33265;BME280;31404;53.974;-1.086;2022-12-07T02:45:38;102377.29;;;-1.83;100.00
33265;BME280;31404;53.974;-1.086;2022-12-07T02:50:34;102378.57;;;-1.91;100.00
33265;BME280;31404;53.974;-1.086;2022-12-07T03:20:36;102376.47;;;0.88;98.17
33265;BME280;31404;53.974;-1.086;2022-12-07T03:25:35;102364.61;;;3.03;88.62
33265;BME280;31404;53.974;-1.086;2022-12-07T03:40:39;102355.69;;;-0.88;100.00
33265;BME280;31404;53.974;-1.086;2022-12-07T03:45:38;102352.01;;;-1.33;100.00
33265;BME280;31404;53.974;-1.086;2022-12-07T03:50:40;102338.89;;;-0.33;100.00
33265;BME280;31404;53.974;-1.086;2022-12-07T03:55:36;102343.32;;;-1.10;100.00
33265;BME280;31404;53.974;-1.086;2022-12-07T04:00:35;102339.15;;;-1.12;100.00
33265;BME280;31404;53.974;-1.086;2022-12-07T04:05:35;102340.87;;;-1.30;100.00
33265;BME280;31404;53.974;-1.086;2022-12-07T04:10:35;102336.18;;;-1.19;100.00
33265;BME280;31404;53.974;-1.086;2022-12-07T04:15:35;102334.71;;;-0.47;100.00
33265;BME280;31404;53.974;-1.086;2022-12-07T04:20:34;102339.64;;;-0.50;100.00
33265;BME280;31404;53.974;-1.086;2022-12-07T04:25:35;102339.99;;;-1.35;100.00
33265;BME280;31404;53.974;-1.086;2022-12-07T04:30:35;102334.65;;;-1.31;100.00
33265;BME280;31404;53.974;-1.086;2022-12-07T04:35:35;102327.56;;;-1.48;100.00
33265;BME280;31404;53.974;-1.086;2022-12-07T04:40:35;102331.60;;;-1.62;100.00
33265;BME280;31404;53.974;-1.086;2022-12-07T04:45:35;102326.67;;;-1.00;100.00
33265;BME280;31404;53.974;-1.086;2022-12-07T04:50:35;102323.33;;;-1.09;100.00
33265;BME280;31404;53.974;-1.086;2022-12-07T04:55:34;102328.55;;;-1.06;100.00
33265;BME280;31404;53.974;-1.086;2022-12-07T05:00:34;102325.31;;;-1.12;100.00
33265;BME280;31404;53.974;-1.086;2022-12-07T05:05:34;102324.01;;;-1.20;100.00
33265;BME280;31404;53.974;-1.086;2022-12-07T05:10:34;102320.92;;;-0.29;99.97
33265;BME280;31404;53.974;-1.086;2022-12-07T05:15:34;102321.15;;;-0.56;100.00
33265;BME280;31404;53.974;-1.086;2022-12-07T05:20:35;102313.89;;;-0.40;100.00
33265;BME280;31404;53.974;-1.086;2022-12-07T05:25:35;102306.74;;;0.57;96.90
33265;BME280;31404;53.974;-1.086;2022-12-07T05:30:34;102300.97;;;-1.37;100.00
33265;BME280;31404;53.974;-1.086;2022-12-07T05:35:35;102293.76;;;-0.58;100.00
33265;BME280;31404;53.974;-1.086;2022-12-07T05:40:36;102299.24;;;0.89;91.78
33265;BME280;31404;53.974;-1.086;2022-12-07T05:45:34;102291.23;;;0.39;97.62
33265;BME280;31404;53.974;-1.086;2022-12-07T05:50:34;102287.18;;;1.40;89.77
33265;BME280;31404;53.974;-1.086;2022-12-07T05:55:34;102287.09;;;1.60;89.80
33265;BME280;31404;53.974;-1.086;2022-12-07T06:00:34;102290.19;;;-1.48;100.00
33265;BME280;31404;53.974;-1.086;2022-12-07T06:05:35;102290.27;;;-0.14;99.20
33265;BME280;31404;53.974;-1.086;2022-12-07T06:10:35;102293.53;;;0.22;97.25
33265;BME280;31404;53.974;-1.086;2022-12-07T06:15:36;102280.56;;;0.55;94.84
33265;BME280;31404;53.974;-1.086;2022-12-07T06:20:34;102278.31;;;0.77;92.57
33265;BME280;31404;53.974;-1.086;2022-12-07T06:25:39;102283.77;;;0.76;91.91
33265;BME280;31404;53.974;-1.086;2022-12-07T06:30:35;102286.77;;;1.86;86.96
33265;BME280;31404;53.974;-1.086;2022-12-07T06:35:34;102295.75;;;1.79;85.98
33265;BME280;31404;53.974;-1.086;2022-12-07T06:40:35;102281.32;;;1.36;87.25
33265;BME280;31404;53.974;-1.086;2022-12-07T06:45:35;102276.52;;;1.93;84.19
33265;BME280;31404;53.974;-1.086;2022-12-07T06:50:35;102269.98;;;1.26;88.96
33265;BME280;31404;53.974;-1.086;2022-12-07T06:55:35;102274.34;;;1.59;87.86
33265;BME280;31404;53.974;-1.086;2022-12-07T07:00:35;102269.62;;;1.48;86.59
33265;BME280;31404;53.974;-1.086;2022-12-07T07:05:35;102268.10;;;2.23;85.19
33265;BME280;31404;53.974;-1.086;2022-12-07T07:10:34;102263.56;;;1.62;85.57
33265;BME280;31404;53.974;-1.086;2022-12-07T07:15:36;102262.43;;;0.57;89.77
33265;BME280;31404;53.974;-1.086;2022-12-07T07:20:34;102265.04;;;1.63;85.24
33265;BME280;31404;53.974;-1.086;2022-12-07T07:25:35;102265.01;;;0.73;90.83
33265;BME280;31404;53.974;-1.086;2022-12-07T07:30:35;102264.91;;;-0.68;93.95
33265;BME280;31404;53.974;-1.086;2022-12-07T07:40:35;102259.84;;;-0.63;94.83
33265;BME280;31404;53.974;-1.086;2022-12-07T07:45:34;102258.47;;;0.78;90.11
33265;BME280;31404;53.974;-1.086;2022-12-07T07:50:35;102252.45;;;0.49;91.31
33265;BME280;31404;53.974;-1.086;2022-12-07T07:55:35;102252.32;;;-1.10;100.00
33265;BME280;31404;53.974;-1.086;2022-12-07T08:00:35;102246.32;;;-0.08;91.35
33265;BME280;31404;53.974;-1.086;2022-12-07T08:05:37;102256.82;;;-1.02;99.48
33265;BME280;31404;53.974;-1.086;2022-12-07T08:10:35;102262.98;;;-0.54;97.56
33265;BME280;31404;53.974;-1.086;2022-12-07T08:15:37;102258.55;;;-0.29;95.66
33265;BME280;31404;53.974;-1.086;2022-12-07T08:20:35;102258.96;;;0.51;91.97
33265;BME280;31404;53.974;-1.086;2022-12-07T08:25:35;102263.17;;;-1.28;97.82
33265;BME280;31404;53.974;-1.086;2022-12-07T08:30:34;102258.95;;;-0.05;100.00
33265;BME280;31404;53.974;-1.086;2022-12-07T08:35:34;102256.12;;;0.04;93.41
33265;BME280;31404;53.974;-1.086;2022-12-07T08:40:34;102265.56;;;-0.63;95.80
33265;BME280;31404;53.974;-1.086;2022-12-07T08:45:29;102263.09;;;0.17;93.52
33265;BME280;31404;53.974;-1.086;2022-12-07T08:50:36;102251.93;;;0.24;91.92
33265;BME280;31404;53.974;-1.086;2022-12-07T08:55:35;102248.62;;;0.60;90.69
33265;BME280;31404;53.974;-1.086;2022-12-07T09:00:34;102250.76;;;0.50;90.88
33265;BME280;31404;53.974;-1.086;2022-12-07T09:05:34;102240.34;;;0.21;91.51
33265;BME280;31404;53.974;-1.086;2022-12-07T09:10:34;102239.73;;;-1.05;100.00
33265;BME280;31404;53.974;-1.086;2022-12-07T09:15:34;102246.09;;;-1.21;100.00
33265;BME280;31404;53.974;-1.086;2022-12-07T09:20:35;102243.81;;;-0.38;99.06
33265;BME280;31404;53.974;-1.086;2022-12-07T09:25:36;102242.25;;;0.31;93.21
33265;BME280;31404;53.974;-1.086;2022-12-07T09:35:34;102235.31;;;0.66;94.57
33265;BME280;31404;53.974;-1.086;2022-12-07T09:40:34;102230.10;;;0.26;95.64
33265;BME280;31404;53.974;-1.086;2022-12-07T09:45:36;102237.92;;;0.39;93.21
33265;BME280;31404;53.974;-1.086;2022-12-07T09:50:34;102244.19;;;0.37;92.70
33265;BME280;31404;53.974;-1.086;2022-12-07T09:55:30;102249.11;;;-0.49;96.65
33265;BME280;31404;53.974;-1.086;2022-12-07T10:00:34;102245.04;;;-0.92;98.91
33265;BME280;31404;53.974;-1.086;2022-12-07T10:05:37;102239.34;;;-0.29;98.00
33265;BME280;31404;53.974;-1.086;2022-12-07T10:10:35;102230.06;;;0.39;94.53
33265;BME280;31404;53.974;-1.086;2022-12-07T10:20:35;102222.77;;;0.76;93.50
33265;BME280;31404;53.974;-1.086;2022-12-07T10:25:36;102216.62;;;-0.09;96.06
33265;BME280;31404;53.974;-1.086;2022-12-07T10:40:36;102210.79;;;-0.66;98.18
33265;BME280;31404;53.974;-1.086;2022-12-07T10:45:35;102199.85;;;-0.20;97.11
33265;BME280;31404;53.974;-1.086;2022-12-07T11:10:40;102170.18;;;-0.57;99.77
33265;BME280;31404;53.974;-1.086;2022-12-07T11:20:42;102153.43;;;0.14;96.99
33265;BME280;31404;53.974;-1.086;2022-12-07T11:35:42;102122.43;;;1.54;89.21
33265;BME280;31404;53.974;-1.086;2022-12-07T11:40:36;102108.16;;;1.50;90.48
33265;BME280;31404;53.974;-1.086;2022-12-07T11:45:37;102108.06;;;0.78;91.46
33265;BME280;31404;53.974;-1.086;2022-12-07T11:50:38;102099.79;;;0.21;94.67
33265;BME280;31404;53.974;-1.086;2022-12-07T12:00:35;102088.29;;;0.93;90.84
33265;BME280;31404;53.974;-1.086;2022-12-07T12:05:34;102078.71;;;1.52;89.87
33265;BME280;31404;53.974;-1.086;2022-12-07T12:10:41;102080.67;;;0.64;92.60
33265;BME280;31404;53.974;-1.086;2022-12-07T12:20:39;102068.55;;;1.07;91.43
33265;BME280;31404;53.974;-1.086;2022-12-07T12:30:37;102073.33;;;0.29;95.32
33265;BME280;31404;53.974;-1.086;2022-12-07T12:35:36;102064.67;;;0.76;92.79
33265;BME280;31404;53.974;-1.086;2022-12-07T12:45:35;102052.79;;;0.26;95.42
33265;BME280;31404;53.974;-1.086;2022-12-07T12:50:35;102036.69;;;1.30;90.93
33265;BME280;31404;53.974;-1.086;2022-12-07T13:00:34;102037.25;;;1.47;89.84
33265;BME280;31404;53.974;-1.086;2022-12-07T13:05:35;102040.42;;;2.05;85.73
33265;BME280;31404;53.974;-1.086;2022-12-07T13:10:39;102039.01;;;2.23;86.32
33265;BME280;31404;53.974;-1.086;2022-12-07T13:15:36;102034.15;;;1.75;88.83
33265;BME280;31404;53.974;-1.086;2022-12-07T13:35:36;101984.73;;;2.31;87.54
33265;BME280;31404;53.974;-1.086;2022-12-07T13:40:35;101974.76;;;2.05;85.93
33265;BME280;31404;53.974;-1.086;2022-12-07T13:45:36;101971.73;;;2.00;86.42
33265;BME280;31404;53.974;-1.086;2022-12-07T13:50:35;101963.64;;;3.15;84.99
33265;BME280;31404;53.974;-1.086;2022-12-07T13:55:35;101958.96;;;3.27;80.77
33265;BME280;31404;53.974;-1.086;2022-12-07T14:00:35;101964.15;;;1.35;90.87
33265;BME280;31404;53.974;-1.086;2022-12-07T14:05:35;101958.08;;;1.62;88.86
33265;BME280;31404;53.974;-1.086;2022-12-07T14:10:37;101950.89;;;2.36;86.65
33265;BME280;31404;53.974;-1.086;2022-12-07T14:15:35;101936.31;;;2.90;83.30
33265;BME280;31404;53.974;-1.086;2022-12-07T14:20:37;101929.21;;;0.57;93.04
33265;BME280;31404;53.974;-1.086;2022-12-07T14:30:35;101932.21;;;1.32;91.25
33265;BME280;31404;53.974;-1.086;2022-12-07T14:35:34;101916.12;;;2.33;86.20
33265;BME280;31404;53.974;-1.086;2022-12-07T14:40:34;101924.39;;;1.87;88.11
33265;BME280;31404;53.974;-1.086;2022-12-07T14:45:35;101920.40;;;2.19;87.35
33265;BME280;31404;53.974;-1.086;2022-12-07T14:50:37;101921.67;;;3.42;83.05
33265;BME280;31404;53.974;-1.086;2022-12-07T14:55:35;101926.59;;;1.56;89.90
33265;BME280;31404;53.974;-1.086;2022-12-07T15:00:35;101920.12;;;2.26;86.97
33265;BME280;31404;53.974;-1.086;2022-12-07T15:05:35;101920.99;;;2.13;86.83
33265;BME280;31404;53.974;-1.086;2022-12-07T15:10:35;101922.08;;;1.36;88.84
33265;BME280;31404;53.974;-1.086;2022-12-07T15:15:35;101910.56;;;1.16;89.04
33265;BME280;31404;53.974;-1.086;2022-12-07T15:20:35;101907.42;;;1.60;87.22
33265;BME280;31404;53.974;-1.086;2022-12-07T15:25:34;101906.49;;;0.87;90.44
33265;BME280;31404;53.974;-1.086;2022-12-07T15:30:36;101893.28;;;2.05;86.61
33265;BME280;31404;53.974;-1.086;2022-12-07T15:40:35;101868.77;;;2.52;81.96
33265;BME280;31404;53.974;-1.086;2022-12-07T15:45:35;101874.94;;;0.91;88.50
33265;BME280;31404;53.974;-1.086;2022-12-07T15:50:35;101865.68;;;1.25;88.24
33265;BME280;31404;53.974;-1.086;2022-12-07T15:55:35;101861.94;;;1.41;87.50
33265;BME280;31404;53.974;-1.086;2022-12-07T16:00:35;101854.74;;;0.62;90.43
33265;BME280;31404;53.974;-1.086;2022-12-07T16:05:35;101849.47;;;0.70;90.01
33265;BME280;31404;53.974;-1.086;2022-12-07T16:10:36;101856.26;;;-0.09;93.22
33265;BME280;31404;53.974;-1.086;2022-12-07T16:20:35;101836.32;;;2.43;82.74
33265;BME280;31404;53.974;-1.086;2022-12-07T16:25:35;101827.24;;;3.82;76.65
33265;BME280;31404;53.974;-1.086;2022-12-07T16:30:34;101824.83;;;4.18;74.72
33265;BME280;31404;53.974;-1.086;2022-12-07T16:40:34;101812.78;;;4.03;74.63
33265;BME280;31404;53.974;-1.086;2022-12-07T16:45:36;101812.53;;;1.60;82.98
33265;BME280;31404;53.974;-1.086;2022-12-07T16:50:34;101815.44;;;1.74;80.00
33265;BME280;31404;53.974;-1.086;2022-12-07T16:55:37;101817.30;;;1.22;84.25
33265;BME280;31404;53.974;-1.086;2022-12-07T17:00:35;101822.95;;;-0.31;94.68
33265;BME280;31404;53.974;-1.086;2022-12-07T17:10:37;101801.08;;;1.27;85.03
33265;BME280;31404;53.974;-1.086;2022-12-07T17:15:34;101801.29;;;0.17;89.42
33265;BME280;31404;53.974;-1.086;2022-12-07T17:20:34;101794.86;;;-0.28;90.54
33265;BME280;31404;53.974;-1.086;2022-12-07T17:25:34;101791.53;;;0.61;88.53
33265;BME280;31404;53.974;-1.086;2022-12-07T17:30:34;101785.20;;;-1.54;95.72
33265;BME280;31404;53.974;-1.086;2022-12-07T17:35:34;101774.89;;;-0.09;91.54
33265;BME280;31404;53.974;-1.086;2022-12-07T17:40:34;101762.61;;;1.68;84.17
33265;BME280;31404;53.974;-1.086;2022-12-07T17:45:36;101762.00;;;1.13;83.40
33265;BME280;31404;53.974;-1.086;2022-12-07T17:50:35;101753.73;;;1.16;83.15
33265;BME280;31404;53.974;-1.086;2022-12-07T17:55:35;101756.29;;;-1.17;94.84
33265;BME280;31404;53.974;-1.086;2022-12-07T18:00:34;101753.99;;;-0.84;95.71
33265;BME280;31404;53.974;-1.086;2022-12-07T18:05:35;101751.71;;;-0.77;93.16
33265;BME280;31404;53.974;-1.086;2022-12-07T18:10:35;101755.81;;;0.57;89.40
33265;BME280;31404;53.974;-1.086;2022-12-07T18:15:34;101755.07;;;-0.03;89.14
33265;BME280;31404;53.974;-1.086;2022-12-07T18:20:34;101744.36;;;1.10;84.31
33265;BME280;31404;53.974;-1.086;2022-12-07T18:25:35;101736.81;;;0.17;89.14
33265;BME280;31404;53.974;-1.086;2022-12-07T18:30:35;101737.94;;;-0.93;93.50
33265;BME280;31404;53.974;-1.086;2022-12-07T18:35:35;101736.58;;;-0.95;93.85
33265;BME280;31404;53.974;-1.086;2022-12-07T18:40:37;101726.00;;;-0.20;90.19
33265;BME280;31404;53.974;-1.086;2022-12-07T18:45:35;101720.84;;;0.59;87.07
33265;BME280;31404;53.974;-1.086;2022-12-07T18:50:35;101721.04;;;-0.28;90.79
33265;BME280;31404;53.974;-1.086;2022-12-07T18:55:34;101720.17;;;-0.56;88.94
33265;BME280;31404;53.974;-1.086;2022-12-07T19:00:35;101709.08;;;0.34;84.54
33265;BME280;31404;53.974;-1.086;2022-12-07T19:05:35;101696.97;;;-0.17;87.13
33265;BME280;31404;53.974;-1.086;2022-12-07T19:10:34;101699.92;;;-1.80;94.59
33265;BME280;31404;53.974;-1.086;2022-12-07T19:15:34;101690.77;;;-0.71;91.98
33265;BME280;31404;53.974;-1.086;2022-12-07T19:20:36;101682.23;;;-1.00;91.08
33265;BME280;31404;53.974;-1.086;2022-12-07T19:25:35;101674.35;;;0.90;84.03
33265;BME280;31404;53.974;-1.086;2022-12-07T19:30:34;101679.14;;;1.92;79.64
33265;BME280;31404;53.974;-1.086;2022-12-07T19:35:35;101672.28;;;-0.91;89.01
33265;BME280;31404;53.974;-1.086;2022-12-07T19:40:35;101669.61;;;-0.40;86.92
33265;BME280;31404;53.974;-1.086;2022-12-07T19:45:34;101659.85;;;0.11;87.96
33265;BME280;31404;53.974;-1.086;2022-12-07T19:50:34;101655.50;;;-0.17;88.69
33265;BME280;31404;53.974;-1.086;2022-12-07T20:00:35;101652.90;;;1.99;78.56
33265;BME280;31404;53.974;-1.086;2022-12-07T20:05:35;101645.44;;;2.37;76.70
33265;BME280;31404;53.974;-1.086;2022-12-07T20:10:37;101628.49;;;2.63;75.46
33265;BME280;31404;53.974;-1.086;2022-12-07T20:15:36;101635.20;;;1.64;77.06
33265;BME280;31404;53.974;-1.086;2022-12-07T20:20:35;101627.21;;;1.81;77.70
33265;BME280;31404;53.974;-1.086;2022-12-07T20:25:35;101624.22;;;0.98;80.75
33265;BME280;31404;53.974;-1.086;2022-12-07T20:30:35;101608.88;;;0.95;81.06
33265;BME280;31404;53.974;-1.086;2022-12-07T20:35:35;101605.02;;;1.83;78.85
33265;BME280;31404;53.974;-1.086;2022-12-07T20:40:35;101595.90;;;2.46;75.02
33265;BME280;31404;53.974;-1.086;2022-12-07T20:45:35;101594.90;;;2.48;73.96
33265;BME280;31404;53.974;-1.086;2022-12-07T20:50:35;101595.22;;;1.73;77.25
33265;BME280;31404;53.974;-1.086;2022-12-07T20:55:34;101587.54;;;1.84;76.73
33265;BME280;31404;53.974;-1.086;2022-12-07T21:00:35;101572.95;;;2.72;74.00
33265;BME280;31404;53.974;-1.086;2022-12-07T21:05:34;101572.65;;;1.60;78.46
33265;BME280;31404;53.974;-1.086;2022-12-07T21:10:35;101561.71;;;2.50;73.32
33265;BME280;31404;53.974;-1.086;2022-12-07T21:15:37;101557.72;;;2.71;73.71
33265;BME280;31404;53.974;-1.086;2022-12-07T21:20:35;101556.46;;;2.26;73.54
33265;BME280;31404;53.974;-1.086;2022-12-07T21:25:35;101551.24;;;3.49;70.69
33265;BME280;31404;53.974;-1.086;2022-12-07T21:30:34;101545.32;;;2.24;75.12
33265;BME280;31404;53.974;-1.086;2022-12-07T21:35:37;101556.98;;;1.46;76.71
33265;BME280;31404;53.974;-1.086;2022-12-07T21:40:35;101553.73;;;1.73;76.07
33265;BME280;31404;53.974;-1.086;2022-12-07T21:45:35;101545.97;;;2.28;75.23
33265;BME280;31404;53.974;-1.086;2022-12-07T21:50:34;101542.35;;;1.33;80.13
33265;BME280;31404;53.974;-1.086;2022-12-07T22:00:35;101522.74;;;0.28;82.16
33265;BME280;31404;53.974;-1.086;2022-12-07T22:05:35;101520.77;;;0.54;81.55
33265;BME280;31404;53.974;-1.086;2022-12-07T22:10:34;101523.45;;;-0.63;85.31
33265;BME280;31404;53.974;-1.086;2022-12-07T22:15:34;101523.71;;;-1.78;91.22
33265;BME280;31404;53.974;-1.086;2022-12-07T22:20:35;101517.34;;;-0.98;89.90
33265;BME280;31404;53.974;-1.086;2022-12-07T22:30:35;101509.31;;;0.45;82.57
33265;BME280;31404;53.974;-1.086;2022-12-07T22:35:34;101511.19;;;0.78;83.11
33265;BME280;31404;53.974;-1.086;2022-12-07T22:40:29;101501.99;;;1.75;78.16
33265;BME280;31404;53.974;-1.086;2022-12-07T23:00:34;101484.04;;;1.01;81.20
33265;BME280;31404;53.974;-1.086;2022-12-07T23:10:34;101474.74;;;1.18;78.43
33265;BME280;31404;53.974;-1.086;2022-12-07T23:15:36;101463.42;;;2.42;73.57
33265;BME280;31404;53.974;-1.086;2022-12-07T23:20:34;101460.58;;;2.82;72.63
33265;BME280;31404;53.974;-1.086;2022-12-07T23:25:34;101454.64;;;2.00;76.23
33265;BME280;31404;53.974;-1.086;2022-12-07T23:30:34;101449.49;;;1.96;75.16
33265;BME280;31404;53.974;-1.086;2022-12-07T23:35:34;101450.75;;;-0.44;83.53
33265;BME280;31404;53.974;-1.086;2022-12-07T23:40:35;101452.26;;;-0.69;86.00
33265;BME280;31404;53.974;-1.086;2022-12-07T23:45:34;101439.45;;;1.57;79.28
33265;BME280;31404;53.974;-1.086;2022-12-07T23:50:34;101434.80;;;1.61;77.10
33265;BME280;31404;53.974;-1.086;2022-12-07T23:55:34;101439.12;;;1.00;77.23
